sensor_id;sensor_type;location;lat;lon;timestamp;pressure;altitude;pressure_sealevel;temperature;humidity
57572;BME280;44459;43.522;24.470;2023-04-20T00:01:53;99825.28;;;8.19;100.00
57572;BME280;44459;43.522;24.470;2023-04-20T00:04:18;99824.41;;;8.20;100.00
57572;BME280;44459;43.522;24.470;2023-04-20T00:06:44;99827.97;;;8.26;100.00
57572;BME280;44459;43.522;24.470;2023-04-20T00:09:13;99827.09;;;8.26;100.00
57572;BME280;44459;43.522;24.470;2023-04-20T00:11:39;99827.94;;;8.22;100.00
57572;BME280;44459;43.522;24.470;2023-04-20T00:14:05;99823.56;;;8.22;100.00
57572;BME280;44459;43.522;24.470;2023-04-20T00:16:30;99825.25;;;8.17;100.00
57572;BME280;44459;43.522;24.470;2023-04-20T00:18:58;99808.56;;;8.10;100.00
57572;BME280;44459;43.522;24.470;2023-04-20T00:21:24;99811.19;;;8.10;100.00
57572;BME280;44459;43.522;24.470;2023-04-20T00:23:50;99810.25;;;8.05;100.00
57572;BME280;44459;43.522;24.470;2023-04-20T00:26:16;99809.41;;;8.05;100.00
57572;BME280;44459;43.522;24.470;2023-04-20T00:28:42;99804.03;;;7.94;100.00
57572;BME280;44459;43.522;24.470;2023-04-20T00:31:08;99803.16;;;7.95;100.00
57572;BME280;44459;43.522;24.470;2023-04-20T00:33:33;99805.81;;;7.98;100.00
57572;BME280;44459;43.522;24.470;2023-04-20T00:35:59;99810.13;;;7.90;100.00
57572;BME280;44459;43.522;24.470;2023-04-20T00:38:24;99810.94;;;7.85;100.00
57572;BME280;44459;43.522;24.470;2023-04-20T00:40:50;99804.72;;;7.75;100.00
57572;BME280;44459;43.522;24.470;2023-04-20T00:43:18;99809.88;;;7.68;100.00
57572;BME280;44459;43.522;24.470;2023-04-20T00:45:45;99803.72;;;7.66;100.00
57572;BME280;44459;43.522;24.470;2023-04-20T00:48:11;99803.72;;;7.67;100.00
57572;BME280;44459;43.522;24.470;2023-04-20T00:50:37;99814.28;;;7.69;100.00
57572;BME280;44459;43.522;24.470;2023-04-20T00:53:03;99802.84;;;7.65;100.00
57572;BME280;44459;43.522;24.470;2023-04-20T00:55:29;99813.31;;;7.62;100.00
57572;BME280;44459;43.522;24.470;2023-04-20T00:57:55;99804.50;;;7.57;100.00
57572;BME280;44459;43.522;24.470;2023-04-20T01:00:20;99806.22;;;7.52;100.00
57572;BME280;44459;43.522;24.470;2023-04-20T01:02:46;99798.28;;;7.47;100.00
57572;BME280;44459;43.522;24.470;2023-04-20T01:05:12;99800.94;;;7.49;100.00
57572;BME280;44459;43.522;24.470;2023-04-20T01:07:38;99799.16;;;7.48;100.00
57572;BME280;44459;43.522;24.470;2023-04-20T01:10:05;99804.41;;;7.48;100.00
57572;BME280;44459;43.522;24.470;2023-04-20T01:12:31;99797.38;;;7.47;100.00
57572;BME280;44459;43.522;24.470;2023-04-20T01:14:56;99808.78;;;7.46;100.00
57572;BME280;44459;43.522;24.470;2023-04-20T01:17:22;99794.72;;;7.42;100.00
57572;BME280;44459;43.522;24.470;2023-04-20T01:19:48;99792.97;;;7.43;100.00
57572;BME280;44459;43.522;24.470;2023-04-20T01:22:18;99795.63;;;7.44;100.00
57572;BME280;44459;43.522;24.470;2023-04-20T01:24:44;99796.47;;;7.43;100.00
57572;BME280;44459;43.522;24.470;2023-04-20T01:27:10;99794.72;;;7.42;100.00
57572;BME280;44459;43.522;24.470;2023-04-20T01:29:36;99794.66;;;7.39;100.00
57572;BME280;44459;43.522;24.470;2023-04-20T01:32:02;99796.41;;;7.37;100.00
57572;BME280;44459;43.522;24.470;2023-04-20T01:34:27;99800.56;;;7.20;100.00
57572;BME280;44459;43.522;24.470;2023-04-20T01:36:53;99796.19;;;7.18;100.00
57572;BME280;44459;43.522;24.470;2023-04-20T01:39:19;99796.16;;;7.15;100.00
57572;BME280;44459;43.522;24.470;2023-04-20T01:41:44;99804.91;;;7.17;100.00
57572;BME280;44459;43.522;24.470;2023-04-20T01:44:10;99795.22;;;7.13;100.00
57572;BME280;44459;43.522;24.470;2023-04-20T01:46:36;99803.94;;;7.10;100.00
57572;BME280;44459;43.522;24.470;2023-04-20T01:49:04;99787.25;;;7.05;100.00
57572;BME280;44459;43.522;24.470;2023-04-20T01:51:29;99790.72;;;7.01;100.00
57572;BME280;44459;43.522;24.470;2023-04-20T01:53:55;99792.44;;;6.99;100.00
57572;BME280;44459;43.522;24.470;2023-04-20T01:56:20;99788.94;;;7.01;100.00
57572;BME280;44459;43.522;24.470;2023-04-20T01:58:46;99786.41;;;7.04;100.00
57572;BME280;44459;43.522;24.470;2023-04-20T02:01:11;99782.81;;;6.99;100.00
57572;BME280;44459;43.522;24.470;2023-04-20T02:03:36;99784.56;;;6.97;100.00
57572;BME280;44459;43.522;24.470;2023-04-20T02:06:02;99787.22;;;7.02;100.00
57572;BME280;44459;43.522;24.470;2023-04-20T02:08:27;99787.19;;;6.99;100.00
57572;BME280;44459;43.522;24.470;2023-04-20T02:10:53;99775.78;;;6.97;100.00
57572;BME280;44459;43.522;24.470;2023-04-20T02:13:18;99781.94;;;6.97;100.00
57572;BME280;44459;43.522;24.470;2023-04-20T02:15:44;99781.94;;;6.97;100.00
57572;BME280;44459;43.522;24.470;2023-04-20T02:18:09;99785.41;;;6.98;100.00
57572;BME280;44459;43.522;24.470;2023-04-20T02:20:34;99783.66;;;6.97;100.00
57572;BME280;44459;43.522;24.470;2023-04-20T02:23:00;99789.81;;;6.99;100.00
57572;BME280;44459;43.522;24.470;2023-04-20T02:25:26;99787.09;;;6.94;100.00
57572;BME280;44459;43.522;24.470;2023-04-20T02:27:51;99784.41;;;6.88;100.00
57572;BME280;44459;43.522;24.470;2023-04-20T02:30:17;99788.72;;;6.83;100.00
57572;BME280;44459;43.522;24.470;2023-04-20T02:32:42;99790.44;;;6.81;100.00
57572;BME280;44459;43.522;24.470;2023-04-20T02:35:08;99783.41;;;6.79;100.00
57572;BME280;44459;43.522;24.470;2023-04-20T02:37:34;99789.50;;;6.76;100.00
57572;BME280;44459;43.522;24.470;2023-04-20T02:39:59;99785.03;;;6.69;100.00
57572;BME280;44459;43.522;24.470;2023-04-20T02:42:24;99785.75;;;6.59;100.00
57572;BME280;44459;43.522;24.470;2023-04-20T02:44:50;99786.50;;;6.50;100.00
57572;BME280;44459;43.522;24.470;2023-04-20T02:47:17;99776.00;;;6.49;100.00
57572;BME280;44459;43.522;24.470;2023-04-20T02:49:43;99782.94;;;6.47;100.00
57572;BME280;44459;43.522;24.470;2023-04-20T02:52:08;99769.72;;;6.39;100.00
57572;BME280;44459;43.522;24.470;2023-04-20T02:54:34;99774.91;;;6.35;100.00
57572;BME280;44459;43.522;24.470;2023-04-20T02:56:59;99781.03;;;6.37;100.00
57572;BME280;44459;43.522;24.470;2023-04-20T02:59:25;99788.88;;;6.34;100.00
57572;BME280;44459;43.522;24.470;2023-04-20T03:01:51;99779.22;;;6.33;100.00
57572;BME280;44459;43.522;24.470;2023-04-20T03:04:16;99779.13;;;6.27;100.00
57572;BME280;44459;43.522;24.470;2023-04-20T03:06:43;99777.31;;;6.23;100.00
57572;BME280;44459;43.522;24.470;2023-04-20T03:09:09;99777.34;;;6.24;100.00
57572;BME280;44459;43.522;24.470;2023-04-20T03:11:34;99781.66;;;6.21;100.00
57572;BME280;44459;43.522;24.470;2023-04-20T03:14:00;99778.13;;;6.17;100.00
57572;BME280;44459;43.522;24.470;2023-04-20T03:16:25;99777.19;;;6.15;100.00
57572;BME280;44459;43.522;24.470;2023-04-20T03:18:50;99776.31;;;6.13;100.00
57572;BME280;44459;43.522;24.470;2023-04-20T03:21:16;99786.78;;;6.13;100.00
57572;BME280;44459;43.522;24.470;2023-04-20T03:23:41;99784.16;;;6.13;100.00
57572;BME280;44459;43.522;24.470;2023-04-20T03:26:07;99788.47;;;6.10;100.00
57572;BME280;44459;43.522;24.470;2023-04-20T03:28:32;99783.19;;;6.06;100.00
57572;BME280;44459;43.522;24.470;2023-04-20T03:30:58;99789.25;;;6.05;100.00
57572;BME280;44459;43.522;24.470;2023-04-20T03:33:25;99787.53;;;6.07;100.00
57572;BME280;44459;43.522;24.470;2023-04-20T03:35:51;99776.22;;;6.07;100.00
57572;BME280;44459;43.522;24.470;2023-04-20T03:38:17;99786.72;;;6.10;100.00
57572;BME280;44459;43.522;24.470;2023-04-20T03:40:42;99785.81;;;6.08;100.00
57572;BME280;44459;43.522;24.470;2023-04-20T03:43:08;99785.00;;;6.12;100.00
57572;BME280;44459;43.522;24.470;2023-04-20T03:45:33;99792.88;;;6.12;100.00
57572;BME280;44459;43.522;24.470;2023-04-20T03:47:59;99794.63;;;6.13;100.00
57572;BME280;44459;43.522;24.470;2023-04-20T03:50:24;99801.66;;;6.14;100.00
57572;BME280;44459;43.522;24.470;2023-04-20T03:52:50;99794.69;;;6.16;100.00
57572;BME280;44459;43.522;24.470;2023-04-20T03:55:15;99790.34;;;6.18;100.00
57572;BME280;44459;43.522;24.470;2023-04-20T03:57:40;99794.88;;;6.28;100.00
57572;BME280;44459;43.522;24.470;2023-04-20T04:00:06;99796.72;;;6.34;100.00
57572;BME280;44459;43.522;24.470;2023-04-20T04:02:33;99798.53;;;6.38;100.00
57572;BME280;44459;43.522;24.470;2023-04-20T04:04:59;99801.25;;;6.44;100.00
57572;BME280;44459;43.522;24.470;2023-04-20T04:07:24;99795.16;;;6.46;100.00
57572;BME280;44459;43.522;24.470;2023-04-20T04:09:50;99799.59;;;6.49;100.00
57572;BME280;44459;43.522;24.470;2023-04-20T04:12:15;99799.63;;;6.52;100.00
57572;BME280;44459;43.522;24.470;2023-04-20T04:14:42;99796.16;;;6.54;100.00
57572;BME280;44459;43.522;24.470;2023-04-20T04:17:07;99798.88;;;6.59;100.00
57572;BME280;44459;43.522;24.470;2023-04-20T04:19:32;99785.75;;;6.59;100.00
57572;BME280;44459;43.522;24.470;2023-04-20T04:21:58;99799.03;;;6.71;100.00
57572;BME280;44459;43.522;24.470;2023-04-20T04:24:23;99801.81;;;6.80;100.00
57572;BME280;44459;43.522;24.470;2023-04-20T04:26:49;99812.50;;;6.95;100.00
57572;BME280;44459;43.522;24.470;2023-04-20T04:29:14;99810.03;;;7.09;100.00
57572;BME280;44459;43.522;24.470;2023-04-20T04:31:40;99812.84;;;7.23;100.00
57572;BME280;44459;43.522;24.470;2023-04-20T04:34:05;99817.28;;;7.25;100.00
57572;BME280;44459;43.522;24.470;2023-04-20T04:36:31;99822.59;;;7.33;100.00
57572;BME280;44459;43.522;24.470;2023-04-20T04:38:56;99820.13;;;7.45;100.00
57572;BME280;44459;43.522;24.470;2023-04-20T04:41:21;99821.22;;;7.65;100.00
57572;BME280;44459;43.522;24.470;2023-04-20T04:43:47;99830.19;;;7.82;100.00
57572;BME280;44459;43.522;24.470;2023-04-20T04:46:13;99833.06;;;8.05;100.00
57572;BME280;44459;43.522;24.470;2023-04-20T04:48:39;99826.22;;;8.25;100.00
57572;BME280;44459;43.522;24.470;2023-04-20T04:51:08;99818.47;;;8.39;100.00
57572;BME280;44459;43.522;24.470;2023-04-20T04:53:34;99824.75;;;8.57;100.00
57572;BME280;44459;43.522;24.470;2023-04-20T04:55:59;99824.91;;;8.74;100.00
57572;BME280;44459;43.522;24.470;2023-04-20T04:58:25;99826.75;;;8.90;100.00
57572;BME280;44459;43.522;24.470;2023-04-20T05:00:50;99823.28;;;9.00;100.00
57572;BME280;44459;43.522;24.470;2023-04-20T05:03:15;99827.72;;;9.10;100.00
57572;BME280;44459;43.522;24.470;2023-04-20T05:05:41;99833.94;;;9.19;100.00
57572;BME280;44459;43.522;24.470;2023-04-20T05:08:07;99830.44;;;9.26;100.00
57572;BME280;44459;43.522;24.470;2023-04-20T05:10:32;99829.56;;;9.28;100.00
57572;BME280;44459;43.522;24.470;2023-04-20T05:12:57;99823.47;;;9.37;100.00
57572;BME280;44459;43.522;24.470;2023-04-20T05:15:24;99820.91;;;9.53;100.00
57572;BME280;44459;43.522;24.470;2023-04-20T05:17:50;99822.69;;;9.60;100.00
57572;BME280;44459;43.522;24.470;2023-04-20T05:20:16;99825.38;;;9.80;100.00
57572;BME280;44459;43.522;24.470;2023-04-20T05:22:42;99823.66;;;10.00;100.00
57572;BME280;44459;43.522;24.470;2023-04-20T05:25:08;99830.75;;;10.23;100.00
57572;BME280;44459;43.522;24.470;2023-04-20T05:27:33;99831.66;;;10.37;100.00
57572;BME280;44459;43.522;24.470;2023-04-20T05:29:59;99828.13;;;10.57;100.00
57572;BME280;44459;43.522;24.470;2023-04-20T05:32:25;99838.69;;;10.64;100.00
57572;BME280;44459;43.522;24.470;2023-04-20T05:34:50;99832.53;;;10.72;99.58
57572;BME280;44459;43.522;24.470;2023-04-20T05:37:15;99832.50;;;10.81;99.55
57572;BME280;44459;43.522;24.470;2023-04-20T05:39:41;99828.97;;;10.87;97.42
57572;BME280;44459;43.522;24.470;2023-04-20T05:42:07;99837.75;;;10.99;97.89
57572;BME280;44459;43.522;24.470;2023-04-20T05:44:32;99835.09;;;11.05;97.97
57572;BME280;44459;43.522;24.470;2023-04-20T05:47:01;99820.94;;;11.22;98.97
57572;BME280;44459;43.522;24.470;2023-04-20T05:49:26;99830.63;;;11.26;96.38
57572;BME280;44459;43.522;24.470;2023-04-20T05:51:51;99820.91;;;11.35;97.80
57572;BME280;44459;43.522;24.470;2023-04-20T05:54:17;99825.28;;;11.42;96.95
57572;BME280;44459;43.522;24.470;2023-04-20T05:56:42;99824.34;;;11.58;98.43
57572;BME280;44459;43.522;24.470;2023-04-20T05:59:08;99828.69;;;11.73;99.44
57572;BME280;44459;43.522;24.470;2023-04-20T06:01:33;99833.94;;;11.82;95.54
57572;BME280;44459;43.522;24.470;2023-04-20T06:03:59;99840.03;;;11.99;94.90
57572;BME280;44459;43.522;24.470;2023-04-20T06:06:24;99839.97;;;12.10;94.84
57572;BME280;44459;43.522;24.470;2023-04-20T06:08:50;99838.16;;;12.18;92.82
57572;BME280;44459;43.522;24.470;2023-04-20T06:11:16;99838.03;;;12.30;92.79
57572;BME280;44459;43.522;24.470;2023-04-20T06:13:42;99835.31;;;12.41;93.56
57572;BME280;44459;43.522;24.470;2023-04-20T06:16:07;99837.03;;;12.46;92.51
57572;BME280;44459;43.522;24.470;2023-04-20T06:18:34;99842.28;;;12.54;91.01
57572;BME280;44459;43.522;24.470;2023-04-20T06:21:00;99830.66;;;12.67;91.29
57572;BME280;44459;43.522;24.470;2023-04-20T06:23:26;99834.06;;;12.81;92.62
57572;BME280;44459;43.522;24.470;2023-04-20T06:25:51;99829.63;;;12.85;90.45
57572;BME280;44459;43.522;24.470;2023-04-20T06:28:17;99838.34;;;12.96;88.66
57572;BME280;44459;43.522;24.470;2023-04-20T06:30:42;99832.97;;;13.03;90.59
57572;BME280;44459;43.522;24.470;2023-04-20T06:33:07;99832.03;;;13.15;89.76
57572;BME280;44459;43.522;24.470;2023-04-20T06:35:33;99840.53;;;13.41;91.47
57572;BME280;44459;43.522;24.470;2023-04-20T06:37:58;99835.88;;;13.63;89.51
57572;BME280;44459;43.522;24.470;2023-04-20T06:40:27;99832.88;;;13.87;89.31
57572;BME280;44459;43.522;24.470;2023-04-20T06:42:52;99845.78;;;14.13;89.93
57572;BME280;44459;43.522;24.470;2023-04-20T06:45:18;99846.53;;;14.23;85.62
57572;BME280;44459;43.522;24.470;2023-04-20T06:47:44;99849.91;;;14.34;86.84
57572;BME280;44459;43.522;24.470;2023-04-20T06:50:10;99850.88;;;14.27;85.46
57572;BME280;44459;43.522;24.470;2023-04-20T06:52:37;99860.16;;;13.98;85.15
57572;BME280;44459;43.522;24.470;2023-04-20T06:55:03;99861.25;;;13.84;85.49
57572;BME280;44459;43.522;24.470;2023-04-20T06:57:28;99861.19;;;13.85;87.08
57572;BME280;44459;43.522;24.470;2023-04-20T06:59:54;99866.31;;;14.02;87.15
57572;BME280;44459;43.522;24.470;2023-04-20T07:02:19;99863.94;;;13.79;86.45
57572;BME280;44459;43.522;24.470;2023-04-20T07:04:45;99868.13;;;13.95;86.69
57572;BME280;44459;43.522;24.470;2023-04-20T07:07:10;99865.56;;;13.89;87.93
57572;BME280;44459;43.522;24.470;2023-04-20T07:09:36;99857.75;;;13.79;87.79
57572;BME280;44459;43.522;24.470;2023-04-20T07:12:01;99862.13;;;13.83;87.94
57572;BME280;44459;43.522;24.470;2023-04-20T07:14:27;99857.84;;;13.74;89.34
57572;BME280;44459;43.522;24.470;2023-04-20T07:16:52;99866.59;;;13.81;88.39
57572;BME280;44459;43.522;24.470;2023-04-20T07:19:18;99861.34;;;13.75;89.90
57572;BME280;44459;43.522;24.470;2023-04-20T07:21:43;99857.78;;;13.76;90.85
57572;BME280;44459;43.522;24.470;2023-04-20T07:24:09;99861.75;;;14.10;90.64
57572;BME280;44459;43.522;24.470;2023-04-20T07:26:34;99864.09;;;14.31;90.09
57572;BME280;44459;43.522;24.470;2023-04-20T07:29:00;99867.34;;;14.51;84.61
57572;BME280;44459;43.522;24.470;2023-04-20T07:31:25;99862.78;;;14.61;85.72
57572;BME280;44459;43.522;24.470;2023-04-20T07:33:51;99858.75;;;14.89;85.14
57572;BME280;44459;43.522;24.470;2023-04-20T07:36:16;99863.03;;;14.98;83.19
57572;BME280;44459;43.522;24.470;2023-04-20T07:38:42;99868.31;;;14.99;83.05
57572;BME280;44459;43.522;24.470;2023-04-20T07:41:10;99863.00;;;14.99;82.07
57572;BME280;44459;43.522;24.470;2023-04-20T07:43:36;99877.84;;;15.11;83.08
57572;BME280;44459;43.522;24.470;2023-04-20T07:46:02;99868.53;;;15.35;82.16
57572;BME280;44459;43.522;24.470;2023-04-20T07:48:27;99864.78;;;15.45;83.75
57572;BME280;44459;43.522;24.470;2023-04-20T07:50:52;99863.38;;;15.73;80.88
57572;BME280;44459;43.522;24.470;2023-04-20T07:53:18;99870.59;;;15.67;79.86
57572;BME280;44459;43.522;24.470;2023-04-20T07:55:43;99871.34;;;15.73;81.02
57572;BME280;44459;43.522;24.470;2023-04-20T07:58:09;99861.66;;;15.71;80.89
57572;BME280;44459;43.522;24.470;2023-04-20T08:00:34;99860.72;;;15.73;82.61
57572;BME280;44459;43.522;24.470;2023-04-20T08:03:00;99859.44;;;15.91;80.67
57572;BME280;44459;43.522;24.470;2023-04-20T08:05:25;99857.56;;;15.96;80.46
57572;BME280;44459;43.522;24.470;2023-04-20T08:07:51;99862.97;;;15.93;80.35
57572;BME280;44459;43.522;24.470;2023-04-20T08:10:16;99850.31;;;16.02;80.98
57572;BME280;44459;43.522;24.470;2023-04-20T08:12:42;99866.88;;;16.17;81.68
57572;BME280;44459;43.522;24.470;2023-04-20T08:15:08;99851.09;;;16.07;76.06
57572;BME280;44459;43.522;24.470;2023-04-20T08:17:34;99850.34;;;16.01;77.97
57572;BME280;44459;43.522;24.470;2023-04-20T08:19:59;99853.66;;;16.10;79.14
57572;BME280;44459;43.522;24.470;2023-04-20T08:22:25;99858.09;;;16.11;78.10
57572;BME280;44459;43.522;24.470;2023-04-20T08:24:57;99858.97;;;16.14;77.55
57572;BME280;44459;43.522;24.470;2023-04-20T08:27:23;99856.97;;;16.22;77.03
57572;BME280;44459;43.522;24.470;2023-04-20T08:29:48;99849.44;;;16.03;77.89
57572;BME280;44459;43.522;24.470;2023-04-20T08:32:14;99857.13;;;16.16;77.86
57572;BME280;44459;43.522;24.470;2023-04-20T08:34:40;99859.69;;;16.20;79.32
57572;BME280;44459;43.522;24.470;2023-04-20T08:37:05;99860.63;;;16.18;77.63
57572;BME280;44459;43.522;24.470;2023-04-20T08:39:31;99854.31;;;16.22;74.72
57572;BME280;44459;43.522;24.470;2023-04-20T08:41:57;99851.00;;;16.10;74.37
57572;BME280;44459;43.522;24.470;2023-04-20T08:44:23;99850.16;;;16.10;75.91
57572;BME280;44459;43.522;24.470;2023-04-20T08:46:49;99839.56;;;16.07;79.20
57572;BME280;44459;43.522;24.470;2023-04-20T08:49:16;99851.25;;;16.38;83.52
57572;BME280;44459;43.522;24.470;2023-04-20T08:51:43;99847.19;;;16.62;77.88
57572;BME280;44459;43.522;24.470;2023-04-20T08:54:10;99849.94;;;16.59;77.73
57572;BME280;44459;43.522;24.470;2023-04-20T08:56:41;99844.69;;;16.53;76.65
57572;BME280;44459;43.522;24.470;2023-04-20T08:59:07;99840.03;;;16.63;81.03
57572;BME280;44459;43.522;24.470;2023-04-20T09:01:41;99847.44;;;16.50;76.84
57572;BME280;44459;43.522;24.470;2023-04-20T09:04:25;99842.09;;;16.50;75.05
57572;BME280;44459;43.522;24.470;2023-04-20T09:06:54;99847.00;;;16.31;76.83
57572;BME280;44459;43.522;24.470;2023-04-20T09:09:22;99837.56;;;16.53;76.35
57572;BME280;44459;43.522;24.470;2023-04-20T09:12:05;99834.50;;;16.72;78.50
57572;BME280;44459;43.522;24.470;2023-04-20T09:14:42;99835.03;;;16.84;74.88
57572;BME280;44459;43.522;24.470;2023-04-20T09:17:08;99832.19;;;16.92;74.24
57572;BME280;44459;43.522;24.470;2023-04-20T09:19:38;99838.41;;;16.92;73.52
57572;BME280;44459;43.522;24.470;2023-04-20T09:22:04;99830.44;;;17.25;75.19
57572;BME280;44459;43.522;24.470;2023-04-20T09:24:35;99838.84;;;17.42;70.44
57572;BME280;44459;43.522;24.470;2023-04-20T09:27:21;99831.03;;;17.34;73.13
57572;BME280;44459;43.522;24.470;2023-04-20T09:30:01;99827.00;;;17.50;72.25
57572;BME280;44459;43.522;24.470;2023-04-20T09:32:28;99828.50;;;17.62;75.31
57572;BME280;44459;43.522;24.470;2023-04-20T09:34:54;99833.97;;;17.57;73.38
57572;BME280;44459;43.522;24.470;2023-04-20T09:37:20;99826.41;;;17.41;67.28
57572;BME280;44459;43.522;24.470;2023-04-20T09:39:47;99817.41;;;17.45;70.93
57572;BME280;44459;43.522;24.470;2023-04-20T09:42:14;99831.63;;;17.13;67.05
57572;BME280;44459;43.522;24.470;2023-04-20T09:44:40;99827.00;;;17.20;65.67
57572;BME280;44459;43.522;24.470;2023-04-20T09:47:06;99827.59;;;17.29;69.00
57572;BME280;44459;43.522;24.470;2023-04-20T09:49:33;99826.69;;;17.32;65.34
57572;BME280;44459;43.522;24.470;2023-04-20T09:52:02;99809.91;;;17.59;69.52
57572;BME280;44459;43.522;24.470;2023-04-20T09:54:28;99807.50;;;17.79;66.04
57572;BME280;44459;43.522;24.470;2023-04-20T09:56:55;99822.25;;;17.63;63.84
57572;BME280;44459;43.522;24.470;2023-04-20T09:59:23;99816.63;;;17.40;65.41
57572;BME280;44459;43.522;24.470;2023-04-20T10:01:48;99814.56;;;17.49;67.94
57572;BME280;44459;43.522;24.470;2023-04-20T10:04:14;99809.84;;;17.60;66.74
57572;BME280;44459;43.522;24.470;2023-04-20T10:06:51;99800.41;;;17.78;67.82
57572;BME280;44459;43.522;24.470;2023-04-20T10:09:22;99806.94;;;17.70;66.77
57572;BME280;44459;43.522;24.470;2023-04-20T10:11:50;99801.06;;;17.86;70.57
57572;BME280;44459;43.522;24.470;2023-04-20T10:14:18;99798.69;;;18.05;67.56
57572;BME280;44459;43.522;24.470;2023-04-20T10:16:44;99797.91;;;18.01;62.61
57572;BME280;44459;43.522;24.470;2023-04-20T10:19:11;99800.06;;;18.18;66.62
57572;BME280;44459;43.522;24.470;2023-04-20T10:21:47;99794.53;;;18.24;66.30
57572;BME280;44459;43.522;24.470;2023-04-20T10:24:13;99795.34;;;18.26;67.47
57572;BME280;44459;43.522;24.470;2023-04-20T10:26:41;99793.44;;;18.30;66.51
57572;BME280;44459;43.522;24.470;2023-04-20T10:29:08;99800.06;;;17.90;61.69
57572;BME280;44459;43.522;24.470;2023-04-20T10:31:43;99793.25;;;17.80;61.81
57572;BME280;44459;43.522;24.470;2023-04-20T10:34:08;99796.91;;;18.05;61.57
57572;BME280;44459;43.522;24.470;2023-04-20T10:36:36;99789.75;;;18.34;60.71
57572;BME280;44459;43.522;24.470;2023-04-20T10:39:22;99780.19;;;18.54;60.45
57572;BME280;44459;43.522;24.470;2023-04-20T10:41:59;99785.53;;;18.81;62.33
57572;BME280;44459;43.522;24.470;2023-04-20T10:44:28;99781.06;;;19.06;58.40
57572;BME280;44459;43.522;24.470;2023-04-20T10:46:55;99790.06;;;19.03;59.15
57572;BME280;44459;43.522;24.470;2023-04-20T10:49:28;99794.81;;;18.71;57.61
57572;BME280;44459;43.522;24.470;2023-04-20T10:51:55;99783.84;;;18.52;57.98
57572;BME280;44459;43.522;24.470;2023-04-20T10:54:21;99788.84;;;18.35;60.12
57572;BME280;44459;43.522;24.470;2023-04-20T10:56:50;99789.22;;;18.23;60.42
57572;BME280;44459;43.522;24.470;2023-04-20T10:59:18;99783.41;;;18.10;61.46
57572;BME280;44459;43.522;24.470;2023-04-20T11:01:44;99795.53;;;17.92;63.29
57572;BME280;44459;43.522;24.470;2023-04-20T11:04:11;99785.75;;;18.21;63.10
57572;BME280;44459;43.522;24.470;2023-04-20T11:06:41;99786.09;;;18.36;59.69
57572;BME280;44459;43.522;24.470;2023-04-20T11:09:38;99786.28;;;18.32;58.06
57572;BME280;44459;43.522;24.470;2023-04-20T11:12:05;99781.81;;;18.32;57.52
57572;BME280;44459;43.522;24.470;2023-04-20T11:14:37;99783.75;;;18.55;56.79
57572;BME280;44459;43.522;24.470;2023-04-20T11:17:04;99785.75;;;18.21;57.02
57572;BME280;44459;43.522;24.470;2023-04-20T11:19:34;99787.16;;;18.32;59.51
57572;BME280;44459;43.522;24.470;2023-04-20T11:22:01;99780.63;;;18.41;58.71
57572;BME280;44459;43.522;24.470;2023-04-20T11:24:28;99775.09;;;18.73;59.06
57572;BME280;44459;43.522;24.470;2023-04-20T11:26:55;99781.06;;;19.06;56.76
57572;BME280;44459;43.522;24.470;2023-04-20T11:29:35;99773.88;;;19.08;56.99
57572;BME280;44459;43.522;24.470;2023-04-20T11:32:07;99772.31;;;18.76;52.69
57572;BME280;44459;43.522;24.470;2023-04-20T11:34:34;99766.34;;;18.68;55.56
57572;BME280;44459;43.522;24.470;2023-04-20T11:37:10;99758.88;;;19.02;54.09
57572;BME280;44459;43.522;24.470;2023-04-20T11:39:37;99757.19;;;19.25;56.12
57572;BME280;44459;43.522;24.470;2023-04-20T11:42:03;99747.56;;;19.44;57.34
57572;BME280;44459;43.522;24.470;2023-04-20T11:44:28;99746.31;;;19.54;56.78
57572;BME280;44459;43.522;24.470;2023-04-20T11:46:55;99751.75;;;19.51;57.61
57572;BME280;44459;43.522;24.470;2023-04-20T11:49:25;99753.25;;;19.35;57.01
57572;BME280;44459;43.522;24.470;2023-04-20T11:51:51;99751.03;;;18.98;55.87
57572;BME280;44459;43.522;24.470;2023-04-20T11:54:16;99751.50;;;18.59;57.91
57572;BME280;44459;43.522;24.470;2023-04-20T11:56:44;99763.66;;;18.42;56.51
57572;BME280;44459;43.522;24.470;2023-04-20T11:59:10;99748.84;;;18.32;58.63
57572;BME280;44459;43.522;24.470;2023-04-20T12:01:36;99746.53;;;18.21;59.14
57572;BME280;44459;43.522;24.470;2023-04-20T12:04:05;99746.66;;;17.90;58.18
57572;BME280;44459;43.522;24.470;2023-04-20T12:06:31;99752.16;;;17.84;58.57
57572;BME280;44459;43.522;24.470;2023-04-20T12:08:57;99739.25;;;17.98;56.67
57572;BME280;44459;43.522;24.470;2023-04-20T12:11:23;99737.88;;;18.13;57.92
57572;BME280;44459;43.522;24.470;2023-04-20T12:13:49;99732.81;;;18.32;58.49
57572;BME280;44459;43.522;24.470;2023-04-20T12:16:14;99734.25;;;18.42;56.03
57572;BME280;44459;43.522;24.470;2023-04-20T12:18:40;99731.72;;;18.37;53.52
57572;BME280;44459;43.522;24.470;2023-04-20T12:21:05;99730.44;;;18.49;53.53
57572;BME280;44459;43.522;24.470;2023-04-20T12:23:32;99726.34;;;18.65;54.63
57572;BME280;44459;43.522;24.470;2023-04-20T12:25:57;99729.91;;;18.90;54.21
57572;BME280;44459;43.522;24.470;2023-04-20T12:28:23;99718.72;;;19.04;53.26
57572;BME280;44459;43.522;24.470;2023-04-20T12:30:48;99719.59;;;19.04;51.15
57572;BME280;44459;43.522;24.470;2023-04-20T12:33:14;99705.47;;;19.24;51.38
57572;BME280;44459;43.522;24.470;2023-04-20T12:35:40;99706.56;;;19.43;51.68
57572;BME280;44459;43.522;24.470;2023-04-20T12:38:05;99707.72;;;19.35;50.71
57572;BME280;44459;43.522;24.470;2023-04-20T12:40:31;99697.75;;;19.40;47.47
57572;BME280;44459;43.522;24.470;2023-04-20T12:42:56;99702.53;;;19.55;49.96
57572;BME280;44459;43.522;24.470;2023-04-20T12:45:29;99694.16;;;19.64;49.54
57572;BME280;44459;43.522;24.470;2023-04-20T12:47:55;99695.25;;;19.58;45.40